M I D A S
Marine Information and Data Acquisition System
Tripno 2072 of the Zeeleeuw from 2011-04-05 07:06:15 to 2011-04-05 15:38:27
Back to CruiseResearch ActivitiesStationsMapUnderway DataData graphs

EquipmentUnitsComment
TimeDGPSUTC
LatitudeDGPSDM.mWGS84
LongitudeDGPSDM.mWGS84
TemperatureSBE03/SBE38deg celciusITS90
ConductivitySBE21S/mITS90
SalinitySBE21 Practical Salinity Units
ChlorophylAChelsea fluorimeterg/lCalibrated in Aceton
Missing or incorrect values are displayed as -999
Sea surface data collected by the RV Zeeleeuw from 2011-04-05 07:08:43 to 2011-04-05 15:46:28
Time Latitude Longitude Temperature Conductivity Salinity ChlorophylA
2011-04-05 07:09:48 51°13.68 2°55.878 16.3833 4.5E-5 0.009343 -3.020363
2011-04-05 07:10:48 51°13.689 2°55.778 16.4389 4.5E-5 0.009341 -3.020363
2011-04-05 07:11:47 51°13.691 2°55.738 16.4712 4.5E-5 0.009339 -3.020363
2011-04-05 07:12:44 51°13.714 2°55.737 16.5037 4.5E-5 0.009337 -3.020363
2011-04-05 07:13:44 51°13.784 2°55.677 16.4206 4.5E-5 0.009336 -3.020363
2011-04-05 07:14:46 51°13.917 2°55.57 16.444 4.5E-5 0.009335 -3.020363
2011-04-05 07:15:47 51°14.07 2°55.455 16.5274 4.5E-5 0.009334 -3.020363
2011-04-05 07:16:47 51°14.227 2°55.324 16.4467 4.5E-5 0.009334 -3.020363
2011-04-05 07:17:47 51°14.387 2°55.164 16.3785 4.5E-5 0.009334 -3.020363
2011-04-05 07:18:47 51°14.558 2°54.991 16.4925 4.5E-5 0.009333 -3.020363
2011-04-05 07:19:45 51°14.668 2°54.715 16.6599 4.5E-5 0.00933 -3.020363
2011-04-05 07:20:44 51°14.622 2°54.384 16.6282 4.5E-5 0.009329 -3.020363
2011-04-05 07:21:44 51°14.499 2°54.077 16.6532 4.5E-5 0.009327 -3.020363
2011-04-05 07:22:44 51°14.361 2°53.784 16.6467 4.5E-5 0.009324 -3.020363
2011-04-05 07:23:44 51°14.215 2°53.501 16.6491 4.5E-5 0.00932 -3.020363
2011-04-05 07:24:44 51°14.101 2°53.181 16.7108 4.5E-5 0.009316 -3.020363
2011-04-05 07:25:44 51°13.965 2°52.881 16.7091 4.5E-5 0.009311 -3.020363
2011-04-05 07:26:44 51°13.837 2°52.572 16.7471 4.5E-5 0.009305 -3.020363
2011-04-05 07:27:44 51°13.696 2°52.276 16.7411 4.5E-5 0.0093 -3.020363
2011-04-05 07:28:44 51°13.568 2°51.966 16.7701 4.5E-5 0.009294 -3.020363
2011-04-05 07:29:44 51°13.439 2°51.656 16.8015 4.5E-5 0.009288 -3.020363
2011-04-05 07:30:44 51°13.303 2°51.353 16.5163 4.5E-5 0.00928 -3.020363
2011-04-05 07:31:44 51°13.175 2°51.039 16.5305 4.5E-5 0.009276 -3.020363
2011-04-05 07:32:44 51°13.042 2°50.733 16.5422 4.5E-5 0.009269 -3.020363
2011-04-05 07:33:44 51°12.911 2°50.424 16.5501 4.5E-5 0.009261 -3.020363
2011-04-05 07:34:43 51°12.787 2°50.116 16.5735 4.5E-5 0.009255 -3.020363
2011-04-05 07:35:44 51°12.672 2°49.786 16.5905 4.5E-5 0.009247 -3.020363
2011-04-05 07:36:43 51°12.553 2°49.473 16.5911 4.5E-5 0.009241 -3.020363
2011-04-05 07:37:43 51°12.433 2°49.157 16.6242 4.5E-5 0.009235 -3.020363
2011-04-05 07:38:43 51°12.336 2°48.821 16.6301 4.5E-5 0.00923 -3.020363
2011-04-05 07:39:43 51°12.254 2°48.471 16.6403 4.5E-5 0.009226 -3.020363
2011-04-05 07:40:43 51°12.168 2°48.122 16.6439 4.5E-5 0.009224 -3.020363
2011-04-05 07:41:43 51°12.086 2°47.771 16.669 4.5E-5 0.009223 -3.020363
2011-04-05 07:42:43 51°12.001 2°47.422 16.6898 4.5E-5 0.009222 -3.020363
2011-04-05 07:43:44 51°11.917 2°47.064 16.6925 4.5E-5 0.009222 -3.020363
2011-04-05 07:44:43 51°11.833 2°46.718 16.6973 4.5E-5 0.009221 -3.020363
2011-04-05 07:45:44 51°11.748 2°46.358 16.7105 4.5E-5 0.009221 -3.020363
2011-04-05 07:46:44 51°11.668 2°46.004 16.7249 4.5E-5 0.009221 -3.020363
2011-04-05 07:47:44 51°11.583 2°45.654 16.7344 4.5E-5 0.009221 -3.020363
2011-04-05 07:48:44 51°11.5 2°45.303 16.7463 4.5E-5 0.009221 -3.020363
2011-04-05 07:49:44 51°11.415 2°44.953 16.7581 4.5E-5 0.009221 -3.020363
2011-04-05 07:50:44 51°11.332 2°44.601 16.7679 4.5E-5 0.009221 -3.020363
2011-04-05 07:51:44 51°11.251 2°44.25 16.7789 4.5E-5 0.009221 -3.020363
2011-04-05 07:52:44 51°11.171 2°43.898 16.791 4.5E-5 0.009222 -3.020363
2011-04-05 07:53:43 51°11.098 2°43.55 16.8013 4.5E-5 0.009222 -3.020363
2011-04-05 07:54:43 51°11.053 2°43.184 16.8113 4.5E-5 0.009223 -3.020363
2011-04-05 07:55:43 51°11.028 2°42.814 16.8222 4.5E-5 0.009224 -3.020363
2011-04-05 07:56:44 51°11.017 2°42.564 16.8277 4.5E-5 0.009224 -3.020363
2011-04-05 07:57:44 51°11.013 2°42.411 16.8379 4.5E-5 0.009224 -3.020363
2011-04-05 07:58:44 51°11.045 2°42.28 16.873 4.5E-5 0.009227 -3.020363
2011-04-05 07:59:44 51°11.062 2°42.144 16.8764 4.5E-5 0.009222 -3.020363
2011-04-05 08:00:44 51°11.08 2°42.029 16.8998 4.5E-5 0.009217 -3.020363
2011-04-05 08:01:44 51°11.095 2°41.973 16.9212 4.5E-5 0.009211 -3.020363
2011-04-05 08:02:44 51°11.102 2°41.935 16.9424 4.5E-5 0.009203 -3.020363
2011-04-05 08:03:43 51°11.107 2°41.901 16.9612 4.5E-5 0.009195 -3.020363
2011-04-05 08:04:43 51°11.111 2°41.872 16.9825 4.5E-5 0.009187 -3.020363
2011-04-05 08:05:44 51°11.115 2°41.846 17.0038 4.5E-5 0.009177 -3.020363
2011-04-05 08:06:44 51°11.12 2°41.825 17.023 4.5E-5 0.009167 -3.020363
2011-04-05 08:07:44 51°11.126 2°41.808 17.0477 4.5E-5 0.009156 -3.020363
2011-04-05 08:08:44 51°11.131 2°41.794 17.0666 4.5E-5 0.009146 -3.020363
2011-04-05 08:09:44 51°11.135 2°41.779 17.0858 4.5E-5 0.009135 -3.020363
2011-04-05 08:10:44 51°11.138 2°41.766 17.1099 4.5E-5 0.009124 -3.020363
2011-04-05 08:11:44 51°11.141 2°41.752 17.1244 4.5E-5 0.009112 -3.020363
2011-04-05 08:12:43 51°11.145 2°41.739 17.1526 4.5E-5 0.0091 -3.020363
2011-04-05 08:13:43 51°11.149 2°41.726 17.1735 4.5E-5 0.009088 -3.020363
2011-04-05 08:14:44 51°11.153 2°41.713 17.1875 4.5E-5 0.009076 -3.020363
2011-04-05 08:15:44 51°11.157 2°41.702 17.2056 4.5E-5 0.009063 -3.020363
2011-04-05 08:16:44 51°11.16 2°41.692 17.2343 4.5E-5 0.009051 -3.020363
2011-04-05 08:17:44 51°11.162 2°41.681 17.2467 4.5E-5 0.009039 -3.020363
2011-04-05 08:18:44 51°11.165 2°41.672 17.2679 4.5E-5 0.009027 -3.020363
2011-04-05 08:19:44 51°11.167 2°41.663 17.2818 4.5E-5 0.009015 -3.020363
2011-04-05 08:20:43 51°11.169 2°41.654 17.3051 4.5E-5 0.009005 -3.020363
2011-04-05 08:21:44 51°11.172 2°41.645 17.3236 4.5E-5 0.008995 -3.020363
2011-04-05 08:22:44 51°11.174 2°41.634 17.3489 4.5E-5 0.008986 -3.020363
2011-04-05 08:23:44 51°11.177 2°41.622 17.3721 4.5E-5 0.008978 -3.020363
2011-04-05 08:24:44 51°11.179 2°41.612 17.3886 4.5E-5 0.00897 -3.020363
2011-04-05 08:25:44 51°11.181 2°41.602 17.3949 4.5E-5 0.008962 -3.020363
2011-04-05 08:26:44 51°11.182 2°41.593 17.4144 4.5E-5 0.00895 -3.020363
2011-04-05 08:27:44 51°11.183 2°41.584 17.4301 4.5E-5 0.008943 -3.020363
2011-04-05 08:28:44 51°11.185 2°41.575 17.4582 4.5E-5 0.008932 -3.020363
2011-04-05 08:29:44 51°11.186 2°41.565 17.4797 4.5E-5 0.008923 -3.020363
2011-04-05 08:30:43 51°11.188 2°41.556 17.4873 4.5E-5 0.008915 -3.020363
2011-04-05 08:31:43 51°11.19 2°41.547 17.5054 4.5E-5 0.008905 -3.020363
2011-04-05 08:32:44 51°11.193 2°41.537 17.5123 4.5E-5 0.008897 -3.020363
2011-04-05 08:33:44 51°11.196 2°41.527 17.5362 4.5E-5 0.008888 -3.020363
2011-04-05 08:34:44 51°11.199 2°41.518 17.5575 4.5E-5 0.00888 -3.020363
2011-04-05 08:35:44 51°11.201 2°41.509 17.566 4.5E-5 0.00887 -3.020363
2011-04-05 08:36:44 51°11.211 2°41.458 17.6045 4.5E-5 0.008861 -3.020363
2011-04-05 08:37:44 51°11.162 2°41.358 17.6044 4.5E-5 0.008853 -3.020363
2011-04-05 08:38:44 51°11.084 2°41.43 17.5968 4.5E-5 0.008836 -3.020363
2011-04-05 08:39:43 51°11.06 2°41.614 17.5947 4.5E-5 0.008824 -3.020363
2011-04-05 08:40:43 51°11.06 2°41.813 17.6275 4.5E-5 0.008825 -3.020363
2011-04-05 08:41:44 51°11.056 2°41.973 17.6576 4.5E-5 0.008814 -3.020363
2011-04-05 08:42:44 51°11.094 2°42.031 17.6686 4.5E-5 0.008808 -3.020363
2011-04-05 08:43:44 51°11.12 2°42.028 17.6946 4.5E-5 0.008802 -3.020363
2011-04-05 08:44:43 51°11.125 2°42.015 17.7013 4.5E-5 0.008798 -3.020363
2011-04-05 08:45:44 51°11.13 2°42 17.7163 4.5E-5 0.008795 -3.020363
2011-04-05 08:46:44 51°11.133 2°41.987 17.7301 4.5E-5 0.008789 -3.020363
2011-04-05 08:47:44 51°11.135 2°41.975 17.745 4.5E-5 0.008783 -3.020363
2011-04-05 08:48:44 51°11.137 2°41.965 17.7652 4.5E-5 0.008776 -3.020363
2011-04-05 08:49:43 51°11.138 2°41.958 17.7885 4.5E-5 0.008769 -3.020363
2011-04-05 08:50:44 51°11.139 2°41.952 17.7932 4.5E-5 0.008761 -3.020363
2011-04-05 08:51:44 51°11.139 2°41.947 17.8089 4.5E-5 0.008754 -3.020363
2011-04-05 08:52:43 51°11.161 2°41.931 17.8446 4.5E-5 0.008745 -3.020363
2011-04-05 08:53:44 51°11.199 2°41.862 17.8564 4.5E-5 0.008734 -3.020363
2011-04-05 08:54:43 51°11.18 2°41.76 17.8614 4.5E-5 0.008724 -3.020363
2011-04-05 08:55:43 51°11.141 2°41.704 17.8708 4.5E-5 0.00872 -3.020363
2011-04-05 08:56:44 51°11.098 2°41.652 17.8799 4.5E-5 0.008717 -3.020363
2011-04-05 08:57:43 51°11.058 2°41.585 17.9026 4.5E-5 0.008711 -3.020363
2011-04-05 08:58:43 51°11.021 2°41.51 17.919 4.5E-5 0.008706 -3.020363
2011-04-05 08:59:44 51°10.989 2°41.429 17.938 4.5E-5 0.008701 -3.020363
2011-04-05 09:00:43 51°10.961 2°41.348 17.9453 4.5E-5 0.008696 -3.020363
2011-04-05 09:01:44 51°10.931 2°41.268 17.958 4.5E-5 0.008692 -3.020363
2011-04-05 09:02:43 51°10.905 2°41.193 17.9664 4.5E-5 0.008688 -3.020363
2011-04-05 09:03:43 51°10.877 2°41.119 17.9807 4.5E-5 0.008683 -3.020363
2011-04-05 09:04:44 51°10.848 2°41.044 17.9992 4.5E-5 0.008678 -3.020363
2011-04-05 09:05:43 51°10.821 2°40.97 18.0121 4.5E-5 0.008674 -3.020363
2011-04-05 09:06:44 51°10.791 2°40.895 18.024 4.5E-5 0.008668 -3.020363
2011-04-05 09:07:44 51°10.763 2°40.82 18.0402 4.5E-5 0.008663 -3.020363
2011-04-05 09:08:43 51°10.732 2°40.746 18.0475 4.5E-5 0.008659 -3.020363
2011-04-05 09:09:44 51°10.699 2°40.671 18.0627 4.5E-5 0.008655 -3.020363
2011-04-05 09:10:43 51°10.658 2°40.618 18.0728 4.5E-5 0.008651 -3.020363
2011-04-05 09:11:43 51°10.619 2°40.566 18.0842 4.5E-5 0.008646 -3.020363
2011-04-05 09:12:44 51°10.588 2°40.504 18.1025 4.5E-5 0.008641 -3.020363
2011-04-05 09:13:43 51°10.568 2°40.443 18.1161 4.5E-5 0.008635 -3.020363
2011-04-05 09:14:44 51°10.572 2°40.383 18.1222 4.5E-5 0.008627 -3.020363
2011-04-05 09:15:44 51°10.585 2°40.335 18.1379 4.5E-5 0.008619 -3.020363
2011-04-05 09:16:43 51°10.595 2°40.304 18.1457 4.5E-5 0.008612 -3.020363
2011-04-05 09:17:44 51°10.606 2°40.269 18.1612 4.5E-5 0.008604 -3.020363
2011-04-05 09:18:43 51°10.641 2°40.145 18.1635 4.5E-5 0.008596 -3.020363
2011-04-05 09:19:43 51°10.66 2°40.048 18.1735 4.5E-5 0.00859 -3.020363
2011-04-05 09:20:44 51°10.672 2°39.991 18.1881 4.5E-5 0.008581 -3.020363
2011-04-05 09:21:43 51°10.68 2°39.958 18.1971 4.5E-5 0.008575 -3.020363
2011-04-05 09:22:43 51°10.684 2°39.899 18.2049 4.5E-5 0.008568 -3.020363
2011-04-05 09:23:44 51°10.655 2°39.836 18.2154 4.5E-5 0.008562 -3.020363
2011-04-05 09:24:43 51°10.599 2°39.868 18.232 4.5E-5 0.008551 -3.020363
2011-04-05 09:25:44 51°10.545 2°40.093 18.2501 4.5E-5 0.008539 -3.020363
2011-04-05 09:26:43 51°10.521 2°40.407 18.2554 4.5E-5 0.008541 -3.020363
2011-04-05 09:27:43 51°10.566 2°40.718 18.2673 4.5E-5 0.008536 -3.020363
2011-04-05 09:28:44 51°10.629 2°41.03 18.2769 4.5E-5 0.008532 -3.020363
2011-04-05 09:29:43 51°10.689 2°41.331 18.2989 4.5E-5 0.008523 -3.020363
2011-04-05 09:30:44 51°10.746 2°41.644 18.3039 4.5E-5 0.00852 -3.020363
2011-04-05 09:31:44 51°10.802 2°41.954 18.318 4.5E-5 0.008518 -3.020363
2011-04-05 09:32:43 51°10.854 2°42.259 18.3272 4.5E-5 0.008518 -3.020363
2011-04-05 09:33:44 51°10.911 2°42.574 18.3465 4.5E-5 0.008516 -3.020363
2011-04-05 09:34:44 51°10.968 2°42.883 18.3563 4.5E-5 0.008515 -3.020363
2011-04-05 09:35:43 51°11.022 2°43.188 18.3661 4.5E-5 0.008515 -3.020363
2011-04-05 09:36:44 51°11.078 2°43.503 18.386 4.5E-5 0.008516 -3.020363
2011-04-05 09:37:43 51°11.143 2°43.804 18.395 4.5E-5 0.008516 -3.020363
2011-04-05 09:38:43 51°11.213 2°44.106 18.4062 4.5E-5 0.008516 -3.020363
2011-04-05 09:39:43 51°11.288 2°44.406 18.4109 4.5E-5 0.008516 -3.020363
2011-04-05 09:40:43 51°11.361 2°44.707 18.4311 4.5E-5 0.008516 -3.020363
2011-04-05 09:41:43 51°11.436 2°45.007 18.4533 4.5E-5 0.008516 -3.020363
2011-04-05 09:42:43 51°11.507 2°45.308 18.4558 4.5E-5 0.008516 -3.020363
2011-04-05 09:43:43 51°11.582 2°45.608 18.4668 4.5E-5 0.008515 -3.020363
2011-04-05 09:44:43 51°11.654 2°45.907 18.4834 4.5E-5 0.008516 -3.020363
2011-04-05 09:45:43 51°11.723 2°46.207 18.4989 4.5E-5 0.008514 -3.020363
2011-04-05 09:46:43 51°11.796 2°46.508 18.5043 4.5E-5 0.008515 -3.020363
2011-04-05 09:47:44 51°11.868 2°46.815 18.5029 4.5E-5 0.008515 -3.020363
2011-04-05 09:48:44 51°11.964 2°47.101 18.5399 4.5E-5 0.008515 -3.020363
2011-04-05 09:49:44 51°12.056 2°47.391 18.5376 4.5E-5 0.008515 -3.020363
2011-04-05 09:50:44 51°12.149 2°47.681 18.555 4.5E-5 0.008514 -3.020363
2011-04-05 09:51:44 51°12.24 2°47.973 18.5578 4.5E-5 0.008514 -3.020363
2011-04-05 09:52:44 51°12.33 2°48.266 18.5843 4.5E-5 0.008513 -3.020363
2011-04-05 09:53:44 51°12.417 2°48.561 18.5824 4.5E-5 0.008513 -3.020363
2011-04-05 09:54:44 51°12.507 2°48.854 18.5739 4.5E-5 0.008512 -3.020363
2011-04-05 09:55:44 51°12.598 2°49.146 18.5982 4.5E-5 0.008512 -3.020363
2011-04-05 09:56:44 51°12.705 2°49.424 18.598 4.5E-5 0.008512 -3.020363
2011-04-05 09:57:44 51°12.814 2°49.701 18.6002 4.5E-5 0.008511 -3.020363
2011-04-05 09:58:44 51°12.92 2°49.981 18.6071 4.5E-5 0.00851 -3.020363
2011-04-05 09:59:44 51°13.024 2°50.262 18.6316 4.5E-5 0.00851 -3.020363
2011-04-05 10:00:44 51°13.125 2°50.547 18.6406 4.5E-5 0.008509 -3.020363
2011-04-05 10:01:44 51°13.224 2°50.835 18.6129 4.5E-5 0.008508 -3.020363
2011-04-05 10:02:44 51°13.327 2°51.118 18.6316 4.5E-5 0.008508 -3.020363
2011-04-05 10:03:44 51°13.428 2°51.405 18.6335 4.5E-5 0.008506 -3.020363
2011-04-05 10:04:44 51°13.526 2°51.693 18.6489 4.5E-5 0.008506 -3.020363
2011-04-05 10:05:44 51°13.629 2°51.979 18.6785 4.5E-5 0.008505 -3.020363
2011-04-05 10:06:44 51°13.737 2°52.263 18.6768 4.5E-5 0.008504 -3.020363
2011-04-05 10:07:44 51°13.849 2°52.548 18.6416 4.5E-5 0.008502 -3.020363
2011-04-05 10:08:44 51°13.963 2°52.83 18.6337 4.5E-5 0.008501 -3.020363
2011-04-05 10:09:44 51°14.076 2°53.112 18.7007 4.5E-5 0.008501 -3.020363
2011-04-05 10:10:44 51°14.184 2°53.398 18.7206 4.5E-5 0.008501 -3.020363
2011-04-05 10:11:44 51°14.313 2°53.657 18.6937 4.5E-5 0.008501 -3.020363
2011-04-05 10:12:43 51°14.474 2°53.862 18.6684 4.5E-5 0.008501 -3.020363
2011-04-05 10:13:43 51°14.661 2°54.024 18.6606 4.5E-5 0.0085 -3.020363
2011-04-05 10:14:43 51°14.862 2°54.121 18.679 4.5E-5 0.008499 -3.020363
2011-04-05 10:15:43 51°15.068 2°54.176 18.6438 4.5E-5 0.008498 -3.020363
2011-04-05 10:16:43 51°15.28 2°54.206 18.7828 4.5E-5 0.008496 -3.020363
2011-04-05 10:17:43 51°15.487 2°54.243 18.7206 4.5E-5 0.008492 -3.020363
2011-04-05 10:18:44 51°15.701 2°54.284 18.7163 4.5E-5 0.008488 -3.020363
2011-04-05 10:19:44 51°15.902 2°54.325 18.6738 4.5E-5 0.008482 -3.020363
2011-04-05 10:20:43 51°16.022 2°54.335 18.6509 4.5E-5 0.008474 -3.020363
2011-04-05 10:21:43 51°16.107 2°54.341 18.6053 4.5E-5 0.008469 -3.020363
2011-04-05 10:22:44 51°16.178 2°54.352 18.5848 4.5E-5 0.008464 -3.020363
2011-04-05 10:23:44 51°16.226 2°54.354 18.5467 4.5E-5 0.008458 -3.020363
2011-04-05 10:24:44 51°16.255 2°54.344 18.5959 4.5E-5 0.008452 -3.020363
2011-04-05 10:25:44 51°16.273 2°54.337 18.5634 4.5E-5 0.008445 -3.020363
2011-04-05 10:26:44 51°16.283 2°54.334 18.5612 4.5E-5 0.008438 -3.020363
2011-04-05 10:27:44 51°16.29 2°54.338 18.5608 4.5E-5 0.008429 -3.020363
2011-04-05 10:28:44 51°16.296 2°54.343 18.5721 4.5E-5 0.00842 -3.020363
2011-04-05 10:29:44 51°16.299 2°54.352 18.5917 4.5E-5 0.008413 -3.020363
2011-04-05 10:30:44 51°16.302 2°54.363 18.5923 4.5E-5 0.008406 -3.020363
2011-04-05 10:31:44 51°16.304 2°54.376 18.6278 4.5E-5 0.008397 -3.020363
2011-04-05 10:32:44 51°16.306 2°54.39 18.627 4.5E-5 0.008388 -3.020363
2011-04-05 10:33:44 51°16.308 2°54.404 18.6423 4.5E-5 0.008379 -3.020363
2011-04-05 10:34:44 51°16.311 2°54.418 18.636 4.5E-5 0.008372 -3.020363
2011-04-05 10:35:44 51°16.313 2°54.432 18.6545 4.5E-5 0.008365 -3.020363
2011-04-05 10:36:44 51°16.316 2°54.448 18.6375 4.5E-5 0.008358 -3.020363
2011-04-05 10:37:44 51°16.317 2°54.462 18.6508 4.5E-5 0.008351 -3.020363
2011-04-05 10:38:44 51°16.318 2°54.477 18.6651 4.5E-5 0.008345 -3.020363
2011-04-05 10:39:44 51°16.321 2°54.493 18.6748 4.5E-5 0.008339 -3.020363
2011-04-05 10:40:44 51°16.324 2°54.507 18.7058 4.5E-5 0.008334 -3.020363
2011-04-05 10:41:44 51°16.328 2°54.522 18.697 4.5E-5 0.008328 -3.020363
2011-04-05 10:42:44 51°16.332 2°54.539 18.7049 4.5E-5 0.008322 -3.020363
2011-04-05 10:43:44 51°16.335 2°54.558 18.7085 4.5E-5 0.008316 -3.020363
2011-04-05 10:44:44 51°16.338 2°54.579 18.7131 4.5E-5 0.00831 -3.020363
2011-04-05 10:45:44 51°16.34 2°54.599 18.7187 4.5E-5 0.008305 -3.020363
2011-04-05 10:46:44 51°16.343 2°54.617 18.7591 4.5E-5 0.008299 -3.020363
2011-04-05 10:47:43 51°16.346 2°54.635 18.7417 4.5E-5 0.008294 -3.020363
2011-04-05 10:48:43 51°16.35 2°54.653 18.7545 4.5E-5 0.008288 -3.020363
2011-04-05 10:49:43 51°16.353 2°54.672 18.7491 4.5E-5 0.008283 -3.020363
2011-04-05 10:50:43 51°16.356 2°54.692 18.7597 4.5E-5 0.008277 -3.020363
2011-04-05 10:51:43 51°16.361 2°54.711 18.76 4.5E-5 0.008271 -3.020363
2011-04-05 10:52:43 51°16.367 2°54.73 18.7567 4.5E-5 0.008265 -3.020363
2011-04-05 10:53:43 51°16.374 2°54.749 18.7769 4.5E-5 0.008258 -3.020363
2011-04-05 10:54:43 51°16.38 2°54.77 18.7948 4.5E-5 0.008251 -3.020363
2011-04-05 10:55:44 51°16.386 2°54.795 18.8466 4.5E-5 0.008243 -3.020363
2011-04-05 10:56:44 51°16.389 2°54.82 18.8227 4.5E-5 0.008233 -3.020363
2011-04-05 10:57:43 51°16.392 2°54.845 18.8234 4.5E-5 0.008223 -3.020363
2011-04-05 10:58:43 51°16.397 2°54.869 18.8386 4.5E-5 0.008214 -3.020363
2011-04-05 10:59:44 51°16.402 2°54.895 18.8259 4.5E-5 0.008205 -3.020363
2011-04-05 11:00:44 51°16.408 2°54.919 18.8392 4.5E-5 0.008196 -3.020363
2011-04-05 11:01:43 51°16.426 2°54.919 18.8328 4.5E-5 0.008188 -3.020363
2011-04-05 11:02:44 51°16.423 2°54.841 18.8489 4.5E-5 0.00818 -3.020363
2011-04-05 11:03:43 51°16.355 2°54.685 18.9779 4.5E-5 0.008174 -3.020363
2011-04-05 11:04:43 51°16.273 2°54.491 18.9098 4.5E-5 0.008167 -3.020363
2011-04-05 11:05:43 51°16.164 2°54.324 18.9549 4.5E-5 0.008162 -3.020363
2011-04-05 11:06:44 51°16.077 2°54.132 18.9512 4.5E-5 0.008155 -3.020363
2011-04-05 11:07:44 51°16.065 2°54.04 18.895 4.5E-5 0.00814 -3.020363
2011-04-05 11:08:44 51°16.079 2°54.044 18.8956 4.5E-5 0.008131 -3.020363
2011-04-05 11:09:44 51°16.092 2°54.062 18.9002 4.5E-5 0.008124 -3.020363
2011-04-05 11:10:44 51°16.102 2°54.083 18.9191 4.5E-5 0.008118 -3.020363
2011-04-05 11:11:44 51°16.112 2°54.11 18.9071 4.5E-5 0.008111 -3.020363
2011-04-05 11:12:44 51°16.119 2°54.14 18.9206 4.5E-5 0.008105 -3.020363
2011-04-05 11:13:44 51°16.126 2°54.171 18.9186 4.5E-5 0.008097 -3.020363
2011-04-05 11:14:44 51°16.133 2°54.204 18.92 4.5E-5 0.008091 -3.020363
2011-04-05 11:15:44 51°16.141 2°54.236 18.9148 4.5E-5 0.008085 -3.020363
2011-04-05 11:16:44 51°16.149 2°54.269 18.9405 4.5E-5 0.008079 -3.020363
2011-04-05 11:17:44 51°16.158 2°54.303 18.9421 4.5E-5 0.008073 -3.020363
2011-04-05 11:18:44 51°16.167 2°54.335 18.9297 4.5E-5 0.008068 -3.020363
2011-04-05 11:19:44 51°16.176 2°54.369 18.9414 4.5E-5 0.008063 -3.020363
2011-04-05 11:20:44 51°16.185 2°54.406 18.9356 4.5E-5 0.008058 -3.020363
2011-04-05 11:21:44 51°16.194 2°54.442 18.9248 4.5E-5 0.008053 -3.020363
2011-04-05 11:22:44 51°16.214 2°54.469 18.936 4.5E-5 0.008049 -3.020363
2011-04-05 11:23:43 51°16.309 2°54.401 18.9923 4.5E-5 0.008045 -3.020363
2011-04-05 11:24:43 51°16.448 2°54.263 19.01 4.5E-5 0.008041 -3.020363
2011-04-05 11:25:43 51°16.587 2°54.057 19.0314 4.5E-5 0.008037 -3.020363
2011-04-05 11:26:43 51°16.735 2°53.833 19.0323 4.5E-5 0.008036 -3.020363
2011-04-05 11:27:43 51°16.883 2°53.609 19.027 4.5E-5 0.008033 -3.020363
2011-04-05 11:28:43 51°17.031 2°53.392 19.0548 4.5E-5 0.008029 -3.020363
2011-04-05 11:29:43 51°17.212 2°53.267 19.1428 4.5E-5 0.008036 -3.020363
2011-04-05 11:30:43 51°17.39 2°53.467 19.1587 4.5E-5 0.00803 -3.020363
2011-04-05 11:31:44 51°17.553 2°53.725 19.1086 4.5E-5 0.008027 -3.020363
2011-04-05 11:32:43 51°17.722 2°53.958 19.1179 4.5E-5 0.008025 -3.020363
2011-04-05 11:33:44 51°17.898 2°54.197 19.1426 4.5E-5 0.00802 -3.020363
2011-04-05 11:34:44 51°18.068 2°54.436 19.1398 4.5E-5 0.008035 -3.020363
2011-04-05 11:35:44 51°18.24 2°54.668 19.1167 4.5E-5 0.008036 -3.020363
2011-04-05 11:36:44 51°18.365 2°54.832 18.9202 4.5E-5 0.008032 -3.020363
2011-04-05 11:37:44 51°18.459 2°54.911 18.9179 4.5E-5 0.008039 -3.020363
2011-04-05 11:38:44 51°18.534 2°54.986 18.9357 4.5E-5 0.008028 -3.020363
2011-04-05 11:39:44 51°18.577 2°55.077 18.9074 4.5E-5 0.008025 -3.020363
2011-04-05 11:40:44 51°18.609 2°55.171 18.9657 4.5E-5 0.008023 -3.020363
2011-04-05 11:41:44 51°18.637 2°55.258 18.9754 4.5E-5 0.008023 -3.020363
2011-04-05 11:42:43 51°18.665 2°55.342 18.944 4.5E-5 0.008023 -3.020363
2011-04-05 11:43:43 51°18.697 2°55.422 18.9503 4.5E-5 0.008022 -3.020363
2011-04-05 11:44:43 51°18.731 2°55.499 18.958 4.5E-5 0.008022 -3.020363
2011-04-05 11:45:43 51°18.766 2°55.571 18.9886 4.5E-5 0.008023 -3.020363
2011-04-05 11:46:43 51°18.809 2°55.647 18.9763 4.5E-5 0.008022 -3.020363
2011-04-05 11:47:43 51°18.854 2°55.728 18.983 4.5E-5 0.008022 -3.020363
2011-04-05 11:48:44 51°18.901 2°55.813 18.9807 4.5E-5 0.008022 -3.020363
2011-04-05 11:49:43 51°18.945 2°55.897 19.0421 4.5E-5 0.008022 -3.020363
2011-04-05 11:50:44 51°18.99 2°55.986 19 4.5E-5 0.008022 -3.020363
2011-04-05 11:51:44 51°19.034 2°56.073 19.0264 4.5E-5 0.008023 -3.020363
2011-04-05 11:52:43 51°19.076 2°56.163 19.0139 4.5E-5 0.008023 -3.020363
2011-04-05 11:53:44 51°19.108 2°56.259 19.0375 4.5E-5 0.008023 -3.020363
2011-04-05 11:54:44 51°19.127 2°56.357 19.0276 4.5E-5 0.008024 -3.020363
2011-04-05 11:55:43 51°19.139 2°56.448 19.0488 4.5E-5 0.008023 -3.020363
2011-04-05 11:56:44 51°19.144 2°56.54 19.0453 4.5E-5 0.008022 -3.020363
2011-04-05 11:57:44 51°19.131 2°56.667 19.0423 4.5E-5 0.008022 -3.020363
2011-04-05 11:58:43 51°19.113 2°56.795 19.0739 4.5E-5 0.008022 -3.020363
2011-04-05 11:59:43 51°19.106 2°56.885 19.1196 4.5E-5 0.008021 -3.020363
2011-04-05 12:00:44 51°19.104 2°56.958 19.0501 4.5E-5 0.008021 -3.020363
2011-04-05 12:01:43 51°19.107 2°57.02 19.0829 4.5E-5 0.00802 -3.020363
2011-04-05 12:02:44 51°19.099 2°57.115 19.0768 4.5E-5 0.008019 -3.020363
2011-04-05 12:03:44 51°19.132 2°57.267 19.0463 4.5E-5 0.008017 -3.020363
2011-04-05 12:04:44 51°19.225 2°57.522 19.1548 4.5E-5 0.008018 -3.020363
2011-04-05 12:05:44 51°19.344 2°57.848 19.1796 4.5E-5 0.008015 -3.020363
2011-04-05 12:06:44 51°19.463 2°58.19 19.1986 4.5E-5 0.008011 -3.020363
2011-04-05 12:07:44 51°19.583 2°58.523 19.1325 4.5E-5 0.008003 -3.020363
2011-04-05 12:08:43 51°19.703 2°58.856 19.1633 4.5E-5 0.008 -3.020363
2011-04-05 12:09:44 51°19.827 2°59.196 19.0713 4.5E-5 0.007999 -3.020363
2011-04-05 12:10:43 51°19.941 2°59.528 19.0388 4.5E-5 0.007996 -3.020363
2011-04-05 12:11:44 51°20.057 2°59.88 19.1629 4.5E-5 0.007995 -3.020363
2011-04-05 12:12:43 51°20.174 3°0.221 19.1388 4.5E-5 0.007996 -3.020363
2011-04-05 12:13:44 51°20.297 3°0.573 19.1523 4.5E-5 0.007993 -3.020363
2011-04-05 12:14:43 51°20.41 3°0.922 19.0498 4.5E-5 0.007993 -3.020363
2011-04-05 12:15:44 51°20.505 3°1.303 18.9872 4.5E-5 0.007992 -3.020363
2011-04-05 12:16:43 51°20.598 3°1.672 19.0686 4.5E-5 0.00799 -3.020363
2011-04-05 12:17:44 51°20.692 3°2.053 19.0704 4.5E-5 0.00799 -3.020363
2011-04-05 12:18:43 51°20.785 3°2.416 18.9304 4.5E-5 0.007988 -3.020363
2011-04-05 12:19:44 51°20.88 3°2.794 19.0272 4.5E-5 0.007988 -3.020363
2011-04-05 12:20:43 51°20.973 3°3.165 19.0638 4.5E-5 0.007988 -3.020363
2011-04-05 12:21:44 51°21.069 3°3.551 19.0688 4.5E-5 0.007986 -3.020363
2011-04-05 12:22:43 51°21.164 3°3.923 19.0581 4.5E-5 0.007986 -3.020363
2011-04-05 12:23:44 51°21.261 3°4.307 19.0757 4.5E-5 0.007986 -3.020363
2011-04-05 12:24:44 51°21.352 3°4.691 19.0473 4.5E-5 0.007985 -3.020363
2011-04-05 12:25:44 51°21.453 3°5.074 19.0432 4.5E-5 0.007985 -3.020363
2011-04-05 12:26:44 51°21.548 3°5.457 19.0356 4.5E-5 0.007987 -3.020363
2011-04-05 12:27:44 51°21.643 3°5.838 18.9771 4.5E-5 0.007985 -3.020363
2011-04-05 12:28:44 51°21.743 3°6.217 19.0964 4.5E-5 0.007984 -3.020363
2011-04-05 12:29:43 51°21.841 3°6.585 19.1124 4.5E-5 0.007984 -3.020363
2011-04-05 12:30:44 51°21.94 3°6.966 19.0735 4.5E-5 0.007986 -3.020363
2011-04-05 12:31:44 51°22.011 3°7.362 19.0859 4.5E-5 0.007986 -3.020363
2011-04-05 12:32:44 51°22.07 3°7.759 18.9628 4.5E-5 0.007988 -3.020363
2011-04-05 12:33:44 51°22.108 3°8.162 18.9375 4.5E-5 0.007989 -3.020363
2011-04-05 12:34:44 51°22.149 3°8.568 19.0251 4.5E-5 0.007989 -3.020363
2011-04-05 12:35:44 51°22.185 3°8.98 19.135 4.5E-5 0.007989 -3.020363
2011-04-05 12:36:44 51°22.227 3°9.394 19.1429 4.5E-5 0.007988 -3.020363
2011-04-05 12:37:44 51°22.266 3°9.809 19.1168 4.5E-5 0.007988 -3.020363
2011-04-05 12:38:44 51°22.302 3°10.224 18.9282 4.5E-5 0.007989 -3.020363
2011-04-05 12:39:44 51°22.341 3°10.641 18.9039 4.5E-5 0.007987 -3.020363
2011-04-05 12:40:44 51°22.377 3°11.063 18.8734 4.5E-5 0.007988 -3.020363
2011-04-05 12:41:44 51°22.418 3°11.492 18.9897 4.5E-5 0.007986 -3.020363
2011-04-05 12:42:43 51°22.449 3°11.913 19.0529 4.5E-5 0.007986 -3.020363
2011-04-05 12:43:44 51°22.481 3°12.356 19.068 4.5E-5 0.007986 -3.020363
2011-04-05 12:44:43 51°22.545 3°12.72 18.9927 4.5E-5 0.007985 -3.020363
2011-04-05 12:45:44 51°22.591 3°12.966 18.9272 4.5E-5 0.007985 -3.020363
2011-04-05 12:46:44 51°22.631 3°13.131 18.5275 4.5E-5 0.007986 -3.020363
2011-04-05 12:47:43 51°22.667 3°13.236 18.5983 4.5E-5 0.007986 -3.020363
2011-04-05 12:48:44 51°22.678 3°13.33 18.6242 4.5E-5 0.007984 -3.020363
2011-04-05 12:49:44 51°22.69 3°13.424 18.6942 4.5E-5 0.007985 -3.020363
2011-04-05 12:50:43 51°22.699 3°13.517 18.6197 4.5E-5 0.007984 -3.020363
2011-04-05 12:51:44 51°22.707 3°13.617 18.6741 4.5E-5 0.007983 -3.020363
2011-04-05 12:52:44 51°22.713 3°13.718 18.7158 4.5E-5 0.007983 -3.020363
2011-04-05 12:53:44 51°22.719 3°13.819 18.795 4.5E-5 0.007983 -3.020363
2011-04-05 12:54:43 51°22.724 3°13.916 18.7198 4.5E-5 0.007982 -3.020363
2011-04-05 12:55:44 51°22.73 3°14.015 18.7399 4.5E-5 0.007982 -3.020363
2011-04-05 12:56:44 51°22.753 3°14.079 18.6841 4.5E-5 0.007982 -3.020363
2011-04-05 12:57:44 51°22.74 3°14.056 18.8026 4.5E-5 0.007981 -3.020363
2011-04-05 12:58:43 51°22.71 3°13.962 18.7744 4.5E-5 0.007981 -3.020363
2011-04-05 12:59:44 51°22.696 3°13.835 18.7982 4.5E-5 0.00798 -3.020363
2011-04-05 13:00:44 51°22.671 3°13.707 18.8727 4.5E-5 0.00798 -3.020363
2011-04-05 13:01:44 51°22.639 3°13.586 18.8756 4.5E-5 0.00798 -3.020363
2011-04-05 13:02:43 51°22.623 3°13.458 18.8333 4.5E-5 0.00798 -3.020363
2011-04-05 13:03:43 51°22.606 3°13.328 18.8818 4.5E-5 0.007981 -3.020363
2011-04-05 13:04:44 51°22.597 3°13.277 18.855 4.5E-5 0.007981 -3.020363
2011-04-05 13:05:44 51°22.596 3°13.29 18.8553 4.5E-5 0.007981 -3.020363
2011-04-05 13:06:43 51°22.6 3°13.315 18.8813 4.5E-5 0.007982 -3.020363
2011-04-05 13:07:43 51°22.605 3°13.337 18.8757 4.5E-5 0.007983 -3.020363
2011-04-05 13:08:44 51°22.61 3°13.355 18.8892 4.5E-5 0.007983 -3.020363
2011-04-05 13:09:44 51°22.615 3°13.375 18.9612 4.5E-5 0.007984 -3.020363
2011-04-05 13:10:43 51°22.619 3°13.39 18.9299 4.5E-5 0.007984 -3.020363
2011-04-05 13:11:43 51°22.622 3°13.403 18.9309 4.5E-5 0.007984 -3.020363
2011-04-05 13:12:44 51°22.628 3°13.415 18.9807 4.5E-5 0.007985 -3.020363
2011-04-05 13:13:44 51°22.635 3°13.428 18.9583 4.5E-5 0.007986 -3.020363
2011-04-05 13:14:43 51°22.637 3°13.435 18.9832 4.5E-5 0.007986 -3.020363
2011-04-05 13:15:43 51°22.638 3°13.439 18.9936 4.5E-5 0.007986 -3.020363
2011-04-05 13:16:43 51°22.64 3°13.447 18.9618 4.5E-5 0.007987 -3.020363
2011-04-05 13:17:44 51°22.642 3°13.45 18.9637 4.5E-5 0.007988 -3.020363
2011-04-05 13:18:43 51°22.644 3°13.45 18.9798 4.5E-5 0.007988 -3.020363
2011-04-05 13:19:43 51°22.647 3°13.451 19.0059 4.5E-5 0.007988 -3.020363
2011-04-05 13:20:44 51°22.65 3°13.453 19.0043 4.5E-5 0.007988 -3.020363
2011-04-05 13:21:44 51°22.655 3°13.456 18.9989 4.5E-5 0.007988 -3.020363
2011-04-05 13:22:43 51°22.657 3°13.461 19.074 4.5E-5 0.007988 -3.020363
2011-04-05 13:23:43 51°22.661 3°13.465 19.038 4.5E-5 0.007988 -3.020363
2011-04-05 13:24:44 51°22.664 3°13.467 19.0406 4.5E-5 0.007989 -3.020363
2011-04-05 13:25:44 51°22.666 3°13.472 19.0395 4.5E-5 0.007989 -3.020363
2011-04-05 13:26:43 51°22.669 3°13.476 19.0395 4.5E-5 0.007989 -3.020363
2011-04-05 13:27:43 51°22.671 3°13.481 19.0775 4.5E-5 0.007988 -3.020363
2011-04-05 13:28:44 51°22.673 3°13.486 19.0767 4.5E-5 0.007988 -3.020363
2011-04-05 13:29:44 51°22.699 3°13.495 19.0998 4.5E-5 0.007987 -3.020363
2011-04-05 13:30:43 51°22.808 3°13.493 19.1845 4.5E-5 0.007986 -3.020363
2011-04-05 13:31:43 51°23.001 3°13.431 19.1732 4.5E-5 0.007984 -3.020363
2011-04-05 13:32:44 51°23.212 3°13.404 19.1818 4.5E-5 0.007982 -3.020363
2011-04-05 13:33:44 51°23.425 3°13.395 19.2227 4.5E-5 0.00798 -3.020363
2011-04-05 13:34:44 51°23.613 3°13.404 19.1347 4.5E-5 0.007976 -3.020363
2011-04-05 13:35:44 51°23.721 3°13.44 19.0498 4.5E-5 0.007974 -3.020363
2011-04-05 13:36:44 51°23.796 3°13.51 19.2051 4.5E-5 0.007974 -3.020363
2011-04-05 13:37:44 51°23.835 3°13.647 19.1341 4.5E-5 0.007971 -3.020363
2011-04-05 13:38:43 51°23.843 3°13.777 19.1161 4.5E-5 0.007969 -3.020363
2011-04-05 13:39:44 51°23.847 3°13.906 19.1295 4.5E-5 0.007967 -3.020363
2011-04-05 13:40:44 51°23.856 3°14.028 19.0773 4.5E-5 0.007967 -3.020363
2011-04-05 13:41:44 51°23.869 3°14.149 19.1671 4.5E-5 0.007968 -3.020363
2011-04-05 13:42:44 51°23.875 3°14.266 19.1425 4.5E-5 0.007968 -3.020363
2011-04-05 13:43:43 51°23.876 3°14.379 19.1103 4.5E-5 0.007969 -3.020363
2011-04-05 13:44:44 51°23.876 3°14.494 19.1958 4.5E-5 0.007971 -3.020363
2011-04-05 13:45:44 51°23.873 3°14.606 19.1534 4.5E-5 0.007972 -3.020363
2011-04-05 13:46:44 51°23.871 3°14.716 19.1317 4.5E-5 0.007973 -3.020363
2011-04-05 13:47:44 51°23.87 3°14.824 19.1406 4.5E-5 0.007974 -3.020363
2011-04-05 13:48:44 51°23.873 3°14.933 19.1575 4.5E-5 0.007975 -3.020363
2011-04-05 13:49:43 51°23.876 3°15.039 19.2231 4.5E-5 0.007977 -3.020363
2011-04-05 13:50:43 51°23.877 3°15.144 19.1626 4.5E-5 0.007977 -3.020363
2011-04-05 13:51:43 51°23.876 3°15.248 19.0997 4.5E-5 0.007978 -3.020363
2011-04-05 13:52:43 51°23.874 3°15.349 19.1851 4.5E-5 0.007979 -3.020363
2011-04-05 13:53:43 51°23.867 3°15.444 19.2379 4.5E-5 0.00798 -3.020363
2011-04-05 13:54:43 51°23.858 3°15.555 19.1694 4.5E-5 0.007979 -3.020363
2011-04-05 13:55:44 51°23.848 3°15.674 19.2331 4.5E-5 0.00798 -3.020363
2011-04-05 13:56:44 51°23.837 3°15.782 19.1931 4.5E-5 0.007981 -3.020363
2011-04-05 13:57:43 51°23.825 3°15.88 19.2413 4.5E-5 0.007982 -3.020363
2011-04-05 13:58:44 51°23.812 3°15.98 19.2167 4.5E-5 0.007983 -3.020363
2011-04-05 13:59:44 51°23.791 3°16.087 19.2447 4.5E-5 0.007983 -3.020363
2011-04-05 14:00:44 51°23.769 3°16.195 19.236 4.5E-5 0.007982 -3.020363
2011-04-05 14:01:43 51°23.758 3°16.283 19.214 4.5E-5 0.007981 -3.020363
2011-04-05 14:02:43 51°23.752 3°16.362 19.1487 4.5E-5 0.007981 -3.020363
2011-04-05 14:03:43 51°23.727 3°16.436 19.2505 4.5E-5 0.007981 -3.020363
2011-04-05 14:04:44 51°23.692 3°16.446 19.0801 4.5E-5 0.007981 -3.020363
2011-04-05 14:05:44 51°23.682 3°16.318 19.0174 4.5E-5 0.00798 -3.020363
2011-04-05 14:06:44 51°23.634 3°16.084 19.1728 4.5E-5 0.007981 -3.020363
2011-04-05 14:07:44 51°23.581 3°15.828 19.1687 4.5E-5 0.007981 -3.020363
2011-04-05 14:08:44 51°23.533 3°15.561 19.1974 4.5E-5 0.007982 -3.020363
2011-04-05 14:09:44 51°23.485 3°15.291 19.1982 4.5E-5 0.007983 -3.020363
2011-04-05 14:10:44 51°23.437 3°15.022 19.1354 4.5E-5 0.007984 -3.020363
2011-04-05 14:11:44 51°23.391 3°14.755 19.1838 4.5E-5 0.007986 -3.020363
2011-04-05 14:12:43 51°23.345 3°14.492 19.1859 4.5E-5 0.007987 -3.020363
2011-04-05 14:13:44 51°23.298 3°14.222 19.1949 4.5E-5 0.007991 -3.020363
2011-04-05 14:14:44 51°23.252 3°13.954 19.1633 4.5E-5 0.007992 -3.020363
2011-04-05 14:15:44 51°23.208 3°13.689 19.2322 4.5E-5 0.007994 -3.020363
2011-04-05 14:16:44 51°23.162 3°13.421 19.1581 4.5E-5 0.007995 -3.020363
2011-04-05 14:17:44 51°23.116 3°13.15 19.2367 4.5E-5 0.007996 -3.020363
2011-04-05 14:18:44 51°23.071 3°12.878 19.2042 4.5E-5 0.007997 -3.020363
2011-04-05 14:19:43 51°23.029 3°12.609 19.1763 4.5E-5 0.007997 -3.020363
2011-04-05 14:20:44 51°22.984 3°12.331 19.1624 4.5E-5 0.007998 -3.020363
2011-04-05 14:21:44 51°22.94 3°12.053 19.1881 4.5E-5 0.007998 -3.020363
2011-04-05 14:22:44 51°22.896 3°11.772 19.1873 4.5E-5 0.008 -3.020363
2011-04-05 14:23:44 51°22.853 3°11.488 19.1817 4.5E-5 0.008 -3.020363
2011-04-05 14:24:44 51°22.811 3°11.203 19.2298 4.5E-5 0.008002 -3.020363
2011-04-05 14:25:44 51°22.767 3°10.921 19.2152 4.5E-5 0.008003 -3.020363
2011-04-05 14:26:44 51°22.726 3°10.642 19.1574 4.5E-5 0.008003 -3.020363
2011-04-05 14:27:44 51°22.682 3°10.361 19.1404 4.5E-5 0.008003 -3.020363
2011-04-05 14:28:43 51°22.637 3°10.09 18.9858 -999 -999 -3.020363
2011-04-05 14:29:43 51°22.549 3°9.846 19.2072 4.5E-5 0.008006 -3.020363
2011-04-05 14:30:43 51°22.445 3°9.62 19.0656 4.5E-5 0.008007 -3.020363
2011-04-05 14:31:44 51°22.322 3°9.413 19.1124 4.5E-5 0.008009 -3.020363
2011-04-05 14:32:44 51°22.197 3°9.21 19.1842 4.5E-5 0.008011 -3.020363
2011-04-05 14:33:44 51°22.073 3°9.005 19.1645 4.5E-5 0.008014 -3.020363
2011-04-05 14:34:44 51°21.952 3°8.792 19.1884 4.5E-5 0.008017 -3.020363
2011-04-05 14:35:44 51°21.828 3°8.574 19.2223 4.5E-5 0.00802 -3.020363
2011-04-05 14:36:44 51°21.707 3°8.355 19.1823 4.5E-5 0.008024 -3.020363
2011-04-05 14:37:44 51°21.583 3°8.134 19.1743 4.5E-5 0.008027 -3.020363
2011-04-05 14:38:44 51°21.459 3°7.911 19.1859 4.5E-5 0.00803 -3.020363
2011-04-05 14:39:43 51°21.332 3°7.697 19.1925 4.5E-5 0.008033 -3.020363
2011-04-05 14:40:44 51°21.198 3°7.472 19.1816 4.5E-5 0.008036 -3.020363
2011-04-05 14:41:44 51°21.068 3°7.255 19.2217 4.5E-5 0.008039 -3.020363
2011-04-05 14:42:44 51°20.937 3°7.04 19.1982 4.5E-5 0.008042 -3.020363
2011-04-05 14:43:44 51°20.805 3°6.825 19.1474 4.5E-5 0.008045 -3.020363
2011-04-05 14:44:44 51°20.674 3°6.61 19.2364 4.5E-5 0.008047 -3.020363
2011-04-05 14:45:44 51°20.544 3°6.391 19.243 4.5E-5 0.00805 -3.020363
2011-04-05 14:46:44 51°20.412 3°6.173 19.234 4.5E-5 0.008051 -3.020363
2011-04-05 14:47:44 51°20.282 3°5.956 19.2729 4.5E-5 0.008054 -3.020363
2011-04-05 14:48:43 51°20.156 3°5.747 19.2585 4.5E-5 0.008057 -3.020363
2011-04-05 14:49:44 51°20.026 3°5.53 19.2472 4.5E-5 0.008058 -3.020363
2011-04-05 14:50:43 51°19.904 3°5.308 19.2986 4.5E-5 0.008061 -3.020363
2011-04-05 14:51:44 51°19.779 3°5.072 19.2566 4.5E-5 0.008064 -3.020363
2011-04-05 14:52:44 51°19.657 3°4.837 19.2842 4.5E-5 0.008067 -3.020363
2011-04-05 14:53:44 51°19.534 3°4.61 19.2576 4.5E-5 0.008069 -3.020363
2011-04-05 14:54:44 51°19.413 3°4.382 19.3138 4.5E-5 0.008072 -3.020363
2011-04-05 14:55:44 51°19.29 3°4.152 19.2899 4.5E-5 0.008074 -3.020363
2011-04-05 14:56:44 51°19.167 3°3.92 19.2907 4.5E-5 0.008076 -3.020363
2011-04-05 14:57:43 51°19.047 3°3.698 19.3251 4.5E-5 0.008079 -3.020363
2011-04-05 14:58:44 51°18.924 3°3.469 19.3285 4.5E-5 0.008081 -3.020363
2011-04-05 14:59:44 51°18.801 3°3.241 19.3383 4.5E-5 0.008083 -3.020363
2011-04-05 15:00:44 51°18.68 3°3.018 19.3399 4.5E-5 0.008085 -3.020363
2011-04-05 15:01:44 51°18.56 3°2.794 19.3014 4.5E-5 0.008088 -3.020363
2011-04-05 15:02:44 51°18.44 3°2.571 19.3215 4.5E-5 0.00809 -3.020363
2011-04-05 15:03:44 51°18.32 3°2.351 19.3359 4.5E-5 0.008092 -3.020363
2011-04-05 15:04:43 51°18.202 3°2.135 19.3621 4.5E-5 0.008094 -3.020363
2011-04-05 15:05:44 51°18.08 3°1.908 19.3492 4.5E-5 0.008097 -3.020363
2011-04-05 15:06:43 51°17.961 3°1.687 19.334 4.5E-5 0.008099 -3.020363
2011-04-05 15:07:44 51°17.84 3°1.46 19.3654 4.5E-5 0.008101 -3.020363
2011-04-05 15:08:43 51°17.723 3°1.242 19.351 4.5E-5 0.008103 -3.020363
2011-04-05 15:09:44 51°17.601 3°1.015 19.3514 4.5E-5 0.008105 -3.020363
2011-04-05 15:10:44 51°17.481 3°0.792 19.3688 4.5E-5 0.008108 -3.020363
2011-04-05 15:11:43 51°17.364 3°0.563 19.3839 4.5E-5 0.00811 -3.020363
2011-04-05 15:12:44 51°17.271 3°0.299 19.3466 4.5E-5 0.008111 -3.020363
2011-04-05 15:13:43 51°17.181 3°0.045 19.3616 4.5E-5 0.008114 -3.020363
2011-04-05 15:14:44 51°17.104 2°59.769 19.3687 4.5E-5 0.008117 -3.020363
2011-04-05 15:15:43 51°17.032 2°59.496 19.4034 4.5E-5 0.00812 -3.020363
2011-04-05 15:16:44 51°16.968 2°59.209 19.3694 4.5E-5 0.008122 -3.020363
2011-04-05 15:17:43 51°16.908 2°58.928 18.1965 4.5E-5 0.008122 -3.020363
2011-04-05 15:18:44 51°16.845 2°58.638 18.1648 4.5E-5 0.008124 -3.020363
2011-04-05 15:19:44 51°16.771 2°58.361 18.0343 4.5E-5 0.008126 -3.020363
2011-04-05 15:20:44 51°16.633 2°58.155 18.5113 4.5E-5 0.008129 -3.020363
2011-04-05 15:21:44 51°16.494 2°57.942 18.4211 4.5E-5 0.008132 -3.020363
2011-04-05 15:22:43 51°16.357 2°57.733 18.5084 4.5E-5 0.008134 -3.020363
2011-04-05 15:23:44 51°16.217 2°57.514 18.5078 4.5E-5 0.008136 -3.020363
2011-04-05 15:24:43 51°16.095 2°57.284 18.4781 4.5E-5 0.008138 -3.020363
2011-04-05 15:25:44 51°15.982 2°57.029 18.5623 4.5E-5 0.008141 -3.020363
2011-04-05 15:26:43 51°15.873 2°56.781 18.4982 4.5E-5 0.008143 -3.020363
2011-04-05 15:27:44 51°15.763 2°56.525 18.4738 4.5E-5 0.008145 -3.020363
2011-04-05 15:28:44 51°15.652 2°56.276 18.4712 4.5E-5 0.008147 -3.020363
2011-04-05 15:29:44 51°15.539 2°56.031 18.4994 4.5E-5 0.008148 -3.020363
2011-04-05 15:30:44 51°15.425 2°55.791 18.4953 4.5E-5 0.00815 -3.020363
2011-04-05 15:31:44 51°15.303 2°55.565 18.5338 4.5E-5 0.008152 -3.020363
2011-04-05 15:32:44 51°15.173 2°55.346 18.5381 4.5E-5 0.008153 -3.020363
2011-04-05 15:33:43 51°15.032 2°55.155 18.4753 4.5E-5 0.008155 -3.020363
2011-04-05 15:34:44 51°14.853 2°55.042 18.5594 4.5E-5 0.008156 -3.020363
2011-04-05 15:35:43 51°14.672 2°54.967 18.552 4.5E-5 0.008157 -3.020363
2011-04-05 15:36:44 51°14.487 2°55.069 18.4927 4.5E-5 0.008158 -3.020363
2011-04-05 15:37:43 51°14.319 2°55.245 18.5797 4.5E-5 0.008158 -3.020363
2011-04-05 15:38:44 51°14.149 2°55.391 18.5196 4.5E-5 0.00816 -3.020363
2011-04-05 15:39:44 51°13.995 2°55.511 18.6066 4.5E-5 0.008161 -3.020363
2011-04-05 15:40:43 51°13.897 2°55.585 18.4888 4.5E-5 0.008163 -3.020363
2011-04-05 15:41:44 51°13.818 2°55.646 18.5536 4.5E-5 0.008165 -3.020363
2011-04-05 15:42:43 51°13.746 2°55.717 18.561 4.5E-5 0.008167 -3.020363
2011-04-05 15:43:44 51°13.702 2°55.818 18.6014 4.5E-5 0.00817 -3.020363
2011-04-05 15:44:43 51°13.679 2°55.906 18.6212 4.5E-5 0.008172 -3.020363
2011-04-05 15:45:47 51°13.664 2°55.954 18.6266 4.5E-5 0.008175 -3.020363